createdAt,value
2017-11-17T00:00:35.598Z,2.70
2017-11-17T00:03:03.075Z,2.60
2017-11-17T00:05:30.522Z,2.60
2017-11-17T00:07:58.093Z,2.60
2017-11-17T00:10:25.541Z,2.60
2017-11-17T00:12:53.018Z,2.50
2017-11-17T00:15:20.562Z,2.50
2017-11-17T00:17:48.009Z,2.50
2017-11-17T00:20:15.585Z,2.60
2017-11-17T00:22:43.035Z,2.50
2017-11-17T00:25:10.486Z,2.60
2017-11-17T00:27:38.048Z,2.70
2017-11-17T00:30:05.512Z,2.70
2017-11-17T00:32:32.965Z,2.70
2017-11-17T00:35:00.522Z,2.70
2017-11-17T00:37:28.073Z,2.90
2017-11-17T00:39:55.529Z,2.80
2017-11-17T00:42:22.971Z,2.70
2017-11-17T00:44:50.446Z,2.60
2017-11-17T00:47:18.006Z,2.60
2017-11-17T00:49:45.470Z,2.60
2017-11-17T00:52:13.018Z,2.60
2017-11-17T00:54:40.591Z,2.70
2017-11-17T00:57:08.039Z,2.70
2017-11-17T00:59:35.494Z,2.80
2017-11-17T01:02:03.061Z,2.80
2017-11-17T01:04:30.611Z,2.80
2017-11-17T01:06:58.170Z,2.80
2017-11-17T01:09:25.638Z,2.90
2017-11-17T01:11:53.074Z,2.90
2017-11-17T01:14:20.536Z,2.80
2017-11-17T01:16:47.988Z,2.80
2017-11-17T01:19:15.438Z,2.80
2017-11-17T01:21:42.899Z,2.70
2017-11-17T01:24:10.347Z,2.70
2017-11-17T01:26:37.824Z,2.70
2017-11-17T01:29:05.271Z,2.60
2017-11-17T01:31:32.727Z,2.60
2017-11-17T01:34:00.174Z,2.70
2017-11-17T01:36:27.650Z,2.70
2017-11-17T01:38:55.210Z,2.70
2017-11-17T01:41:22.666Z,2.70
2017-11-17T01:43:50.115Z,2.80
2017-11-17T01:46:17.574Z,3.00
2017-11-17T01:48:45.039Z,2.90
2017-11-17T01:51:12.494Z,2.90
2017-11-17T01:53:40.054Z,2.90
2017-11-17T01:56:07.611Z,2.90
2017-11-17T01:58:35.054Z,2.80
2017-11-17T02:01:02.515Z,2.80
2017-11-17T02:03:29.967Z,2.70
2017-11-17T02:05:57.439Z,2.80
2017-11-17T02:08:24.883Z,2.90
2017-11-17T02:10:52.334Z,2.80
2017-11-17T02:13:19.810Z,2.90
2017-11-17T02:15:47.289Z,3.00
2017-11-17T02:18:14.823Z,3.00
2017-11-17T02:20:42.275Z,3.10
2017-11-17T02:23:09.728Z,3.20
2017-11-17T02:25:37.195Z,3.20
2017-11-17T02:28:04.656Z,3.20
2017-11-17T02:30:32.093Z,3.20
2017-11-17T02:32:59.663Z,3.20
2017-11-17T02:35:27.225Z,3.20
2017-11-17T02:37:54.679Z,3.10
2017-11-17T02:40:22.122Z,3.20
2017-11-17T02:42:49.578Z,3.10
2017-11-17T02:45:17.056Z,3.20
2017-11-17T02:47:44.510Z,3.30
2017-11-17T02:50:11.967Z,3.00
2017-11-17T02:52:39.522Z,2.90
2017-11-17T02:55:07.078Z,3.00
2017-11-17T02:57:34.538Z,2.90
2017-11-17T03:00:01.999Z,3.00
2017-11-17T03:02:29.450Z,3.10
2017-11-17T03:04:56.900Z,2.90
2017-11-17T03:07:24.351Z,2.70
2017-11-17T03:09:51.829Z,2.70
2017-11-17T03:12:19.270Z,2.60
2017-11-17T03:14:46.723Z,2.50
2017-11-17T03:17:14.175Z,2.60
2017-11-17T03:19:41.628Z,2.60
2017-11-17T03:22:09.073Z,2.50
2017-11-17T03:24:36.530Z,2.60
2017-11-17T03:27:04.987Z,2.60
2017-11-17T03:29:33.215Z,2.60
2017-11-17T03:32:00.663Z,2.50
2017-11-17T03:34:28.114Z,2.50
2017-11-17T03:36:55.586Z,2.60
2017-11-17T03:39:23.146Z,2.60
2017-11-17T03:41:50.703Z,2.60
2017-11-17T03:44:18.263Z,2.60
2017-11-17T03:46:45.819Z,2.60
2017-11-17T03:49:14.306Z,2.50
2017-11-17T03:51:41.756Z,2.40
2017-11-17T03:54:09.231Z,2.40
2017-11-17T03:56:36.670Z,2.40
2017-11-17T03:59:04.242Z,2.40
2017-11-17T04:01:31.699Z,2.40
2017-11-17T04:03:59.147Z,2.40
2017-11-17T04:06:26.602Z,2.50
2017-11-17T04:08:54.046Z,2.60
2017-11-17T04:11:21.614Z,2.70
2017-11-17T04:13:49.174Z,2.60
2017-11-17T04:16:20.653Z,2.60
2017-11-17T04:18:48.186Z,2.80
2017-11-17T04:21:15.643Z,2.90
2017-11-17T04:23:43.198Z,3.00
2017-11-17T04:26:10.654Z,2.90
2017-11-17T04:28:38.106Z,2.90
2017-11-17T04:31:05.562Z,2.70
2017-11-17T04:33:33.019Z,2.80
2017-11-17T04:36:00.883Z,2.90
2017-11-17T04:38:28.330Z,3.00
2017-11-17T04:40:55.801Z,3.10
2017-11-17T04:43:23.363Z,3.10
2017-11-17T04:45:50.809Z,3.00
2017-11-17T04:48:18.262Z,3.00
2017-11-17T04:50:45.713Z,3.00
2017-11-17T04:53:13.186Z,2.90
2017-11-17T04:55:40.632Z,2.80
2017-11-17T04:58:08.095Z,2.80
2017-11-17T05:00:35.543Z,2.70
2017-11-17T05:03:03.011Z,2.70
2017-11-17T05:05:30.473Z,2.70
2017-11-17T05:07:58.024Z,2.80
2017-11-17T05:10:25.474Z,2.80
2017-11-17T05:12:52.948Z,2.90
2017-11-17T05:15:20.395Z,3.00
2017-11-17T05:17:47.863Z,3.10
2017-11-17T05:20:15.311Z,3.00
2017-11-17T05:22:42.767Z,2.90
2017-11-17T05:25:10.220Z,3.20
2017-11-17T05:27:37.848Z,3.20
2017-11-17T05:30:06.010Z,3.00
2017-11-17T05:32:34.275Z,3.10
2017-11-17T05:35:02.486Z,3.00
2017-11-17T05:37:29.969Z,3.00
2017-11-17T05:39:57.423Z,3.00
2017-11-17T05:42:24.866Z,3.00
2017-11-17T05:44:52.327Z,2.80
2017-11-17T05:47:19.779Z,2.90
2017-11-17T05:49:47.254Z,2.90
2017-11-17T05:52:14.702Z,3.00
2017-11-17T05:54:42.267Z,3.00
2017-11-17T05:57:09.715Z,2.90
2017-11-17T05:59:37.282Z,2.80
2017-11-17T06:02:04.740Z,2.70
2017-11-17T06:04:32.190Z,2.70
2017-11-17T06:06:59.639Z,2.70
2017-11-17T06:09:27.120Z,2.70
2017-11-17T06:11:54.565Z,2.70
2017-11-17T06:14:22.023Z,2.70
2017-11-17T06:16:49.478Z,2.70
2017-11-17T06:19:16.926Z,2.80
2017-11-17T06:21:44.498Z,2.80
2017-11-17T06:24:11.948Z,2.70
2017-11-17T06:26:39.403Z,2.70
2017-11-17T06:29:06.862Z,2.60
2017-11-17T06:31:34.311Z,2.60
2017-11-17T06:34:01.767Z,2.50
2017-11-17T06:36:29.242Z,2.50
2017-11-17T06:38:56.693Z,2.60
2017-11-17T06:41:24.148Z,2.50
2017-11-17T06:43:51.610Z,2.50
2017-11-17T06:46:19.066Z,2.50
2017-11-17T06:48:46.510Z,2.50
2017-11-17T06:51:13.963Z,2.50
2017-11-17T06:53:41.438Z,2.50
2017-11-17T06:56:08.895Z,2.50
2017-11-17T06:58:38.162Z,2.50
2017-11-17T07:01:05.745Z,2.50
2017-11-17T07:03:33.305Z,2.40
2017-11-17T07:06:00.763Z,2.50
2017-11-17T07:08:28.214Z,2.50
2017-11-17T07:10:55.667Z,2.50
2017-11-17T07:13:23.124Z,2.50
2017-11-17T07:15:50.566Z,2.40
2017-11-17T07:18:18.027Z,2.40
2017-11-17T07:20:45.478Z,2.50
2017-11-17T07:23:12.959Z,2.50
2017-11-17T07:25:40.407Z,2.50
2017-11-17T07:28:07.858Z,2.50
2017-11-17T07:30:35.318Z,2.70
2017-11-17T07:33:02.774Z,2.80
2017-11-17T07:35:30.234Z,2.90
2017-11-17T07:37:57.691Z,2.80
2017-11-17T07:40:25.159Z,2.90
2017-11-17T07:42:52.933Z,3.00
2017-11-17T07:45:20.387Z,2.90
2017-11-17T07:47:47.851Z,2.80
2017-11-17T07:50:15.295Z,2.80
2017-11-17T07:52:42.749Z,2.80
2017-11-17T07:55:10.194Z,2.90
2017-11-17T07:57:37.665Z,2.90
2017-11-17T08:00:05.116Z,2.90
2017-11-17T08:02:32.562Z,2.90
2017-11-17T08:05:00.016Z,2.90
2017-11-17T08:07:27.462Z,3.00
2017-11-17T08:09:54.940Z,3.00
2017-11-17T08:12:22.392Z,3.00
2017-11-17T08:14:49.963Z,3.10
2017-11-17T08:17:24.047Z,3.20
2017-11-17T08:19:51.498Z,3.30
2017-11-17T08:22:18.955Z,3.30
2017-11-17T08:24:46.409Z,3.20
2017-11-17T08:27:13.862Z,3.20
2017-11-17T08:29:41.310Z,3.20
2017-11-17T08:32:08.762Z,3.30
2017-11-17T08:34:36.265Z,3.30
2017-11-17T08:37:03.726Z,3.20
2017-11-17T08:39:31.178Z,3.20
2017-11-17T08:41:58.635Z,3.30
2017-11-17T08:44:26.096Z,3.40
2017-11-17T08:46:53.647Z,3.40
2017-11-17T08:49:21.239Z,3.40
2017-11-17T08:51:48.690Z,3.30
2017-11-17T08:54:16.140Z,3.20
2017-11-17T08:56:43.595Z,3.10
2017-11-17T08:59:11.053Z,3.10
2017-11-17T09:01:38.595Z,3.20
2017-11-17T09:04:06.157Z,3.20
2017-11-17T09:06:33.614Z,3.10
2017-11-17T09:09:01.072Z,3.20
2017-11-17T09:11:28.531Z,3.10
2017-11-17T09:13:56.091Z,3.10
2017-11-17T09:16:23.551Z,3.00
2017-11-17T09:18:50.996Z,3.00
2017-11-17T09:21:18.562Z,3.00
2017-11-17T09:23:46.120Z,3.00
2017-11-17T09:26:13.574Z,3.00
2017-11-17T09:28:41.028Z,3.10
2017-11-17T09:31:08.491Z,3.10
2017-11-17T09:33:35.935Z,3.30
2017-11-17T09:36:03.397Z,3.30
2017-11-17T09:38:30.847Z,3.40
2017-11-17T09:40:58.302Z,3.50
2017-11-17T09:43:25.766Z,3.40
2017-11-17T09:45:53.218Z,3.20
2017-11-17T09:48:20.680Z,3.20
2017-11-17T09:50:48.140Z,3.30
2017-11-17T09:53:15.595Z,3.30
2017-11-17T09:55:43.044Z,3.30
2017-11-17T09:58:10.614Z,3.30
2017-11-17T10:00:38.064Z,3.40
2017-11-17T10:03:05.520Z,3.50
2017-11-17T10:05:32.967Z,3.50
2017-11-17T10:08:00.426Z,3.60
2017-11-17T10:10:27.875Z,3.70
2017-11-17T10:12:55.326Z,3.70
2017-11-17T10:15:22.779Z,3.80
2017-11-17T10:17:50.342Z,3.70
2017-11-17T10:20:17.793Z,3.70
2017-11-17T10:22:45.282Z,3.80
2017-11-17T10:25:12.840Z,3.90
2017-11-17T10:27:40.395Z,4.00
2017-11-17T10:30:07.854Z,4.30
2017-11-17T10:32:35.303Z,4.40
2017-11-17T10:35:02.763Z,4.40
2017-11-17T10:37:30.202Z,4.50
2017-11-17T10:39:57.682Z,4.00
2017-11-17T10:42:25.234Z,3.90
2017-11-17T10:44:52.794Z,3.90
2017-11-17T10:47:20.247Z,4.20
2017-11-17T10:49:47.705Z,4.40
2017-11-17T10:52:15.167Z,4.70
2017-11-17T10:54:42.726Z,4.70
2017-11-17T10:57:10.171Z,4.70
2017-11-17T10:59:39.487Z,4.80
2017-11-17T11:02:06.935Z,4.80
2017-11-17T11:04:34.387Z,4.60
2017-11-17T11:07:04.693Z,4.30
2017-11-17T11:09:32.139Z,4.30
2017-11-17T11:11:59.586Z,4.40
2017-11-17T11:14:27.044Z,4.60
2017-11-17T11:16:54.495Z,4.70
2017-11-17T11:19:21.962Z,4.80
2017-11-17T11:21:49.405Z,4.80
2017-11-17T11:24:17.632Z,4.70
2017-11-17T11:26:45.190Z,4.70
2017-11-17T11:29:12.638Z,4.80
2017-11-17T11:31:40.099Z,5.00
2017-11-17T11:34:07.539Z,4.60
2017-11-17T11:36:35.003Z,4.40
2017-11-17T11:39:02.454Z,4.50
2017-11-17T11:41:29.907Z,4.80
2017-11-17T11:43:57.350Z,4.80
2017-11-17T11:46:24.847Z,4.80
2017-11-17T11:48:52.302Z,4.70
2017-11-17T11:51:19.759Z,4.90
2017-11-17T11:53:47.211Z,4.90
2017-11-17T11:56:14.674Z,4.50
2017-11-17T11:58:42.120Z,4.60
2017-11-17T12:01:09.571Z,4.40
2017-11-17T12:03:37.024Z,4.60
2017-11-17T12:06:04.502Z,4.80
2017-11-17T12:08:31.951Z,5.00
2017-11-17T12:10:59.411Z,4.80
2017-11-17T12:13:26.878Z,4.50
2017-11-17T12:15:54.338Z,4.40
2017-11-17T12:18:21.782Z,4.40
2017-11-17T12:20:49.246Z,4.60
2017-11-17T12:23:16.794Z,4.80
2017-11-17T12:25:44.355Z,4.90
2017-11-17T12:28:11.923Z,5.10
2017-11-17T12:30:39.370Z,5.40
2017-11-17T12:33:06.935Z,5.60
2017-11-17T12:35:34.375Z,5.50
2017-11-17T12:38:01.846Z,4.80
2017-11-17T12:40:29.293Z,4.60
2017-11-17T12:42:56.863Z,4.50
2017-11-17T12:45:24.423Z,4.60
2017-11-17T12:47:51.979Z,4.70
2017-11-17T12:50:19.538Z,5.00
2017-11-17T12:52:46.991Z,4.90
2017-11-17T12:55:14.438Z,4.80
2017-11-17T12:57:42.005Z,4.80
2017-11-17T13:00:09.453Z,4.80
2017-11-17T13:02:36.906Z,4.80
2017-11-17T13:05:04.354Z,5.00
2017-11-17T13:07:31.811Z,5.30
2017-11-17T13:09:59.261Z,5.40
2017-11-17T13:12:26.758Z,5.80
2017-11-17T13:14:54.208Z,6.10
2017-11-17T13:17:21.668Z,6.10
2017-11-17T13:19:49.116Z,6.20
2017-11-17T13:22:16.571Z,6.40
2017-11-17T13:24:44.140Z,6.30
2017-11-17T13:27:11.588Z,6.10
2017-11-17T13:29:39.147Z,5.70
2017-11-17T13:32:06.600Z,5.70
2017-11-17T13:34:34.060Z,5.80
2017-11-17T13:37:01.507Z,6.00
2017-11-17T13:39:28.971Z,6.20
2017-11-17T13:42:03.930Z,6.20
2017-11-17T13:44:31.498Z,6.10
2017-11-17T13:46:58.949Z,6.10
2017-11-17T13:49:26.582Z,6.00
2017-11-17T13:51:54.030Z,5.90
2017-11-17T13:54:21.487Z,5.90
2017-11-17T13:56:48.931Z,5.60
2017-11-17T13:59:16.603Z,5.50
2017-11-17T14:01:44.079Z,5.60
2017-11-17T14:04:11.635Z,5.70
2017-11-17T14:06:39.089Z,5.60
2017-11-17T14:09:06.652Z,5.60
2017-11-17T14:11:34.100Z,5.60
2017-11-17T14:14:01.554Z,5.40
2017-11-17T14:16:29.001Z,5.30
2017-11-17T14:18:56.481Z,5.30
2017-11-17T14:21:23.930Z,5.40
2017-11-17T14:23:51.488Z,5.50
2017-11-17T14:26:18.947Z,5.60
2017-11-17T14:28:46.515Z,5.70
2017-11-17T14:31:14.069Z,5.90
2017-11-17T14:33:41.510Z,5.80
2017-11-17T14:36:08.967Z,5.60
2017-11-17T14:38:36.439Z,5.40
2017-11-17T14:41:04.000Z,5.10
2017-11-17T14:43:31.450Z,4.90
2017-11-17T14:45:58.902Z,4.80
2017-11-17T14:48:26.355Z,4.80
2017-11-17T14:50:53.817Z,4.80
2017-11-17T14:53:21.268Z,4.80
2017-11-17T14:55:48.721Z,4.60
2017-11-17T14:58:16.171Z,4.60
2017-11-17T15:00:43.630Z,4.40
2017-11-17T15:03:11.081Z,4.50
2017-11-17T15:05:38.540Z,4.50
2017-11-17T15:08:05.991Z,4.40
2017-11-17T15:10:33.446Z,4.50
2017-11-17T15:13:00.907Z,4.50
2017-11-17T15:15:28.462Z,4.50
2017-11-17T15:17:55.907Z,4.40
2017-11-17T15:20:23.358Z,4.40
2017-11-17T15:22:50.814Z,4.40
2017-11-17T15:25:18.264Z,4.40
2017-11-17T15:27:46.483Z,4.40
2017-11-17T15:30:13.951Z,4.40
2017-11-17T15:32:41.514Z,4.40
2017-11-17T15:35:08.964Z,4.40
2017-11-17T15:37:36.423Z,4.40
2017-11-17T15:40:03.871Z,4.50
2017-11-17T15:42:31.329Z,4.40
2017-11-17T15:44:58.778Z,4.50
2017-11-17T15:47:26.231Z,4.40
2017-11-17T15:49:53.682Z,4.40
2017-11-17T15:52:21.364Z,4.40
2017-11-17T15:54:48.817Z,4.50
2017-11-17T15:57:16.383Z,4.50
2017-11-17T15:59:43.830Z,4.50
2017-11-17T16:02:11.292Z,4.50
2017-11-17T16:04:38.850Z,4.40
2017-11-17T16:07:06.618Z,4.40
2017-11-17T16:09:34.067Z,4.40
2017-11-17T16:12:01.528Z,4.50
2017-11-17T16:14:28.974Z,4.40
2017-11-17T16:16:56.446Z,4.40
2017-11-17T16:19:23.897Z,4.40
2017-11-17T16:21:51.354Z,4.30
2017-11-17T16:24:18.922Z,4.30
2017-11-17T16:26:46.374Z,4.30
2017-11-17T16:29:13.826Z,4.30
2017-11-17T16:31:41.289Z,4.30
2017-11-17T16:34:08.747Z,4.30
2017-11-17T16:36:36.202Z,4.40
2017-11-17T16:39:03.669Z,4.40
2017-11-17T16:41:31.932Z,4.40
2017-11-17T16:43:59.394Z,4.40
2017-11-17T16:46:26.851Z,4.40
2017-11-17T16:48:54.311Z,4.40
2017-11-17T16:51:21.757Z,4.40
2017-11-17T16:53:49.224Z,4.40
2017-11-17T16:56:16.673Z,4.40
2017-11-17T16:58:44.236Z,4.40
2017-11-17T17:01:11.683Z,4.40
2017-11-17T17:03:39.144Z,4.40
2017-11-17T17:06:06.595Z,4.40
2017-11-17T17:08:34.071Z,4.40
2017-11-17T17:11:01.520Z,4.50
2017-11-17T17:13:28.966Z,4.40
2017-11-17T17:15:56.422Z,4.50
2017-11-17T17:18:23.871Z,4.70
2017-11-17T17:20:51.332Z,4.80
2017-11-17T17:23:18.782Z,4.90
2017-11-17T17:25:46.243Z,4.90
2017-11-17T17:28:13.690Z,4.80
2017-11-17T17:30:41.167Z,4.80
2017-11-17T17:33:08.618Z,4.90
2017-11-17T17:35:36.087Z,4.80
2017-11-17T17:38:03.642Z,4.80
2017-11-17T17:40:31.098Z,4.90
2017-11-17T17:42:58.559Z,4.80
2017-11-17T17:45:26.110Z,4.70
2017-11-17T17:47:53.566Z,4.80
2017-11-17T17:50:21.131Z,4.90
2017-11-17T17:52:48.582Z,5.00
2017-11-17T17:55:16.034Z,5.10
2017-11-17T17:57:43.486Z,4.90
2017-11-17T18:00:11.058Z,4.80
2017-11-17T18:02:38.510Z,4.70
2017-11-17T18:05:06.181Z,4.60
2017-11-17T18:07:33.630Z,4.60
2017-11-17T18:10:01.078Z,4.60
2017-11-17T18:12:28.542Z,4.60
2017-11-17T18:14:55.996Z,4.50
2017-11-17T18:17:23.450Z,4.50
2017-11-17T18:19:50.904Z,4.50
2017-11-17T18:22:18.496Z,4.50
2017-11-17T18:24:46.033Z,4.40
2017-11-17T18:27:13.522Z,4.40
2017-11-17T18:29:40.946Z,4.40
2017-11-17T18:32:08.403Z,4.40
2017-11-17T18:34:35.991Z,4.40
2017-11-17T18:37:03.530Z,4.40
2017-11-17T18:39:30.978Z,4.40
2017-11-17T18:41:58.439Z,4.50
2017-11-17T18:44:25.906Z,4.50
2017-11-17T18:46:53.460Z,4.40
2017-11-17T18:49:20.938Z,4.40
2017-11-17T18:51:48.501Z,4.40
2017-11-17T18:54:15.960Z,4.40
2017-11-17T18:56:43.452Z,4.30
2017-11-17T18:59:10.963Z,4.40
2017-11-17T19:01:38.395Z,4.40
2017-11-17T19:04:05.957Z,4.30
2017-11-17T19:06:33.410Z,4.40
2017-11-17T19:09:00.886Z,4.40
2017-11-17T19:11:28.327Z,4.40
2017-11-17T19:13:55.790Z,4.30
2017-11-17T19:16:23.238Z,4.40
2017-11-17T19:18:50.708Z,4.40
2017-11-17T19:21:18.255Z,4.40
2017-11-17T19:23:45.719Z,4.50
2017-11-17T19:26:13.167Z,4.50
2017-11-17T19:28:40.623Z,4.50
2017-11-17T19:31:08.184Z,4.50
2017-11-17T19:33:35.642Z,4.40
2017-11-17T19:36:03.138Z,4.40
2017-11-17T19:38:31.373Z,4.40
2017-11-17T19:40:58.830Z,4.40
2017-11-17T19:43:26.290Z,4.40
2017-11-17T19:45:53.742Z,4.40
2017-11-17T19:48:21.200Z,4.50
2017-11-17T19:50:48.814Z,4.40
2017-11-17T19:53:16.314Z,4.50
2017-11-17T19:55:43.770Z,4.50
2017-11-17T19:58:11.435Z,4.40
2017-11-17T20:00:39.002Z,4.50
2017-11-17T20:03:06.467Z,4.50
2017-11-17T20:05:33.970Z,4.40
2017-11-17T20:08:01.471Z,4.40
2017-11-17T20:10:28.977Z,4.40
2017-11-17T20:12:57.178Z,4.40
2017-11-17T20:15:24.634Z,4.40
2017-11-17T20:17:52.114Z,4.40
2017-11-17T20:20:19.574Z,4.40
2017-11-17T20:22:47.035Z,4.40
2017-11-17T20:25:14.502Z,4.40
2017-11-17T20:27:41.953Z,4.40
2017-11-17T20:30:09.417Z,4.40
2017-11-17T20:32:36.874Z,4.40
2017-11-17T20:35:04.320Z,4.50
2017-11-17T20:37:31.775Z,4.60
2017-11-17T20:39:59.282Z,4.60
2017-11-17T20:42:26.779Z,4.50
2017-11-17T20:44:54.350Z,4.50
2017-11-17T20:47:21.789Z,4.50
2017-11-17T20:49:49.252Z,4.60
2017-11-17T20:52:16.694Z,4.70
2017-11-17T20:54:44.226Z,4.70
2017-11-17T20:57:11.671Z,4.70
2017-11-17T20:59:39.118Z,4.70
2017-11-17T21:02:07.339Z,4.90
2017-11-17T21:04:34.795Z,4.90
2017-11-17T21:07:02.307Z,5.10
2017-11-17T21:09:30.525Z,5.00
2017-11-17T21:11:58.036Z,4.90
2017-11-17T21:14:26.280Z,4.80
2017-11-17T21:16:53.790Z,4.80
2017-11-17T21:19:21.236Z,4.90
2017-11-17T21:21:49.567Z,5.00
2017-11-17T21:24:17.016Z,5.00
2017-11-17T21:26:44.466Z,4.90
2017-11-17T21:29:11.919Z,4.80
2017-11-17T21:31:39.380Z,4.90
2017-11-17T21:34:06.834Z,5.00
2017-11-17T21:36:34.344Z,5.20
2017-11-17T21:39:02.583Z,5.40
2017-11-17T21:41:30.043Z,5.40
2017-11-17T21:43:57.511Z,5.40
2017-11-17T21:46:24.991Z,5.40
2017-11-17T21:48:52.426Z,5.20
2017-11-17T21:51:19.890Z,5.10
2017-11-17T21:53:48.137Z,5.30
2017-11-17T21:56:15.701Z,5.30
2017-11-17T21:58:43.149Z,5.40
2017-11-17T22:02:37.087Z,5.20
2017-11-17T22:05:04.534Z,5.20
2017-11-17T22:07:32.866Z,5.30
2017-11-17T22:10:00.436Z,5.30
2017-11-17T22:12:27.890Z,5.30
2017-11-17T22:14:55.348Z,5.10
2017-11-17T22:17:22.802Z,5.00
2017-11-17T22:19:50.259Z,5.00
2017-11-17T22:22:17.715Z,5.00
2017-11-17T22:24:45.277Z,4.90
2017-11-17T22:27:12.736Z,4.90
2017-11-17T22:29:40.187Z,5.20
2017-11-17T22:32:07.670Z,5.10
2017-11-17T22:34:35.118Z,5.00
2017-11-17T22:37:02.571Z,5.10
2017-11-17T22:39:30.034Z,5.10
2017-11-17T22:41:57.477Z,5.00
2017-11-17T22:44:24.943Z,5.10
2017-11-17T22:46:52.395Z,5.10
2017-11-17T22:49:19.851Z,5.20
2017-11-17T22:51:47.311Z,5.20
2017-11-17T22:54:14.850Z,5.20
2017-11-17T22:56:42.307Z,5.20
2017-11-17T22:59:09.806Z,5.00
2017-11-17T23:01:37.214Z,5.10
2017-11-17T23:04:04.682Z,5.30
2017-11-17T23:06:32.137Z,5.20
2017-11-17T23:08:59.699Z,5.10
2017-11-17T23:11:27.144Z,5.00
2017-11-17T23:13:54.621Z,5.10
2017-11-17T23:16:22.079Z,5.00
2017-11-17T23:18:49.632Z,5.00
2017-11-17T23:21:17.086Z,5.00
2017-11-17T23:23:44.543Z,5.00
2017-11-17T23:26:12.002Z,4.90
2017-11-17T23:28:39.462Z,4.80
2017-11-17T23:31:06.935Z,4.80
2017-11-17T23:33:34.384Z,4.70
2017-11-17T23:36:01.843Z,4.70
2017-11-17T23:38:29.295Z,4.80
2017-11-17T23:40:56.755Z,4.70
2017-11-17T23:43:24.209Z,4.60
2017-11-17T23:45:51.762Z,4.50
2017-11-17T23:48:19.311Z,4.60
2017-11-17T23:50:46.773Z,4.50
2017-11-17T23:53:14.227Z,4.50
2017-11-17T23:55:41.695Z,4.50
2017-11-17T23:58:10.647Z,4.40
